sensor_id;sensor_type;location;lat;lon;timestamp;P1;durP1;ratioP1;P2;durP2;ratioP2
79124;SDS011;68527;39.470;-0.376;2023-03-23T00:01:02;7.30;;;5.90;;
79124;SDS011;68527;39.470;-0.376;2023-03-23T00:03:30;7.60;;;5.80;;
79124;SDS011;68527;39.470;-0.376;2023-03-23T00:05:58;7.80;;;5.80;;
79124;SDS011;68527;39.470;-0.376;2023-03-23T00:08:29;7.30;;;5.80;;
79124;SDS011;68527;39.470;-0.376;2023-03-23T00:10:56;8.20;;;6.30;;
79124;SDS011;68527;39.470;-0.376;2023-03-23T00:15:50;7.20;;;5.40;;
79124;SDS011;68527;39.470;-0.376;2023-03-23T00:18:19;10.00;;;5.50;;
79124;SDS011;68527;39.470;-0.376;2023-03-23T00:20:53;6.50;;;5.70;;
79124;SDS011;68527;39.470;-0.376;2023-03-23T00:23:20;7.10;;;6.40;;
79124;SDS011;68527;39.470;-0.376;2023-03-23T00:25:49;7.90;;;6.00;;
79124;SDS011;68527;39.470;-0.376;2023-03-23T00:28:18;9.70;;;5.60;;
79124;SDS011;68527;39.470;-0.376;2023-03-23T00:30:53;7.20;;;5.80;;
79124;SDS011;68527;39.470;-0.376;2023-03-23T00:33:21;6.70;;;5.70;;
79124;SDS011;68527;39.470;-0.376;2023-03-23T00:35:49;7.30;;;6.00;;
79124;SDS011;68527;39.470;-0.376;2023-03-23T00:38:17;8.20;;;6.00;;
79124;SDS011;68527;39.470;-0.376;2023-03-23T00:40:44;7.00;;;6.10;;
79124;SDS011;68527;39.470;-0.376;2023-03-23T00:43:12;8.10;;;6.30;;
79124;SDS011;68527;39.470;-0.376;2023-03-23T00:45:39;8.60;;;6.40;;
79124;SDS011;68527;39.470;-0.376;2023-03-23T00:48:05;8.00;;;6.60;;
79124;SDS011;68527;39.470;-0.376;2023-03-23T00:50:31;7.20;;;6.10;;
79124;SDS011;68527;39.470;-0.376;2023-03-23T00:52:57;7.50;;;6.50;;
79124;SDS011;68527;39.470;-0.376;2023-03-23T00:55:24;10.50;;;6.60;;
79124;SDS011;68527;39.470;-0.376;2023-03-23T00:57:50;7.40;;;6.40;;
79124;SDS011;68527;39.470;-0.376;2023-03-23T01:00:16;8.00;;;6.30;;
79124;SDS011;68527;39.470;-0.376;2023-03-23T01:02:44;11.60;;;6.90;;
79124;SDS011;68527;39.470;-0.376;2023-03-23T01:05:10;8.10;;;6.50;;
79124;SDS011;68527;39.470;-0.376;2023-03-23T01:07:36;7.50;;;6.60;;
79124;SDS011;68527;39.470;-0.376;2023-03-23T01:10:03;7.70;;;6.70;;
79124;SDS011;68527;39.470;-0.376;2023-03-23T01:12:29;8.50;;;7.20;;
79124;SDS011;68527;39.470;-0.376;2023-03-23T01:14:55;10.20;;;7.20;;
79124;SDS011;68527;39.470;-0.376;2023-03-23T01:17:21;9.40;;;7.20;;
79124;SDS011;68527;39.470;-0.376;2023-03-23T01:22:12;7.90;;;6.80;;
79124;SDS011;68527;39.470;-0.376;2023-03-23T01:24:38;10.30;;;7.20;;
79124;SDS011;68527;39.470;-0.376;2023-03-23T01:29:34;8.90;;;7.00;;
79124;SDS011;68527;39.470;-0.376;2023-03-23T01:32:01;8.90;;;6.90;;
79124;SDS011;68527;39.470;-0.376;2023-03-23T01:34:27;8.70;;;6.90;;
79124;SDS011;68527;39.470;-0.376;2023-03-23T01:39:18;8.20;;;6.60;;
79124;SDS011;68527;39.470;-0.376;2023-03-23T01:41:44;7.60;;;6.50;;
79124;SDS011;68527;39.470;-0.376;2023-03-23T01:46:42;10.30;;;7.40;;
79124;SDS011;68527;39.470;-0.376;2023-03-23T01:49:09;8.50;;;6.80;;
79124;SDS011;68527;39.470;-0.376;2023-03-23T01:51:42;9.60;;;7.60;;
79124;SDS011;68527;39.470;-0.376;2023-03-23T01:54:12;7.30;;;6.40;;
79124;SDS011;68527;39.470;-0.376;2023-03-23T01:56:45;9.80;;;7.10;;
79124;SDS011;68527;39.470;-0.376;2023-03-23T01:59:12;9.20;;;6.80;;
79124;SDS011;68527;39.470;-0.376;2023-03-23T02:01:38;8.60;;;7.00;;
79124;SDS011;68527;39.470;-0.376;2023-03-23T02:04:09;8.90;;;6.60;;
79124;SDS011;68527;39.470;-0.376;2023-03-23T02:06:39;7.70;;;6.90;;
79124;SDS011;68527;39.470;-0.376;2023-03-23T02:09:05;8.10;;;7.30;;
79124;SDS011;68527;39.470;-0.376;2023-03-23T02:11:33;7.90;;;6.90;;
79124;SDS011;68527;39.470;-0.376;2023-03-23T02:13:59;8.50;;;7.60;;
79124;SDS011;68527;39.470;-0.376;2023-03-23T02:16:29;7.70;;;6.70;;
79124;SDS011;68527;39.470;-0.376;2023-03-23T02:18:58;9.10;;;7.90;;
79124;SDS011;68527;39.470;-0.376;2023-03-23T02:24:20;8.70;;;6.90;;
79124;SDS011;68527;39.470;-0.376;2023-03-23T02:27:20;9.50;;;7.00;;
79124;SDS011;68527;39.470;-0.376;2023-03-23T02:30:10;7.30;;;6.40;;
79124;SDS011;68527;39.470;-0.376;2023-03-23T02:32:51;7.40;;;6.60;;
79124;SDS011;68527;39.470;-0.376;2023-03-23T02:35:22;9.40;;;6.70;;
79124;SDS011;68527;39.470;-0.376;2023-03-23T02:37:52;8.30;;;6.70;;
79124;SDS011;68527;39.470;-0.376;2023-03-23T02:40:24;8.90;;;6.70;;
79124;SDS011;68527;39.470;-0.376;2023-03-23T02:42:53;8.90;;;7.30;;
79124;SDS011;68527;39.470;-0.376;2023-03-23T02:45:20;8.30;;;7.00;;
79124;SDS011;68527;39.470;-0.376;2023-03-23T02:47:46;7.50;;;6.50;;
79124;SDS011;68527;39.470;-0.376;2023-03-23T02:50:14;10.40;;;6.30;;
79124;SDS011;68527;39.470;-0.376;2023-03-23T02:52:40;9.40;;;7.30;;
79124;SDS011;68527;39.470;-0.376;2023-03-23T02:55:07;7.70;;;6.80;;
79124;SDS011;68527;39.470;-0.376;2023-03-23T02:57:36;7.60;;;6.80;;
79124;SDS011;68527;39.470;-0.376;2023-03-23T03:00:06;7.90;;;6.40;;
79124;SDS011;68527;39.470;-0.376;2023-03-23T03:02:57;7.40;;;6.40;;
79124;SDS011;68527;39.470;-0.376;2023-03-23T03:10:26;9.30;;;6.50;;
79124;SDS011;68527;39.470;-0.376;2023-03-23T03:15:42;8.30;;;6.50;;
79124;SDS011;68527;39.470;-0.376;2023-03-23T03:18:11;8.40;;;6.70;;
79124;SDS011;68527;39.470;-0.376;2023-03-23T03:20:45;7.30;;;6.40;;
79124;SDS011;68527;39.470;-0.376;2023-03-23T03:23:14;7.90;;;6.50;;
79124;SDS011;68527;39.470;-0.376;2023-03-23T03:25:40;7.70;;;6.80;;
79124;SDS011;68527;39.470;-0.376;2023-03-23T03:28:14;8.90;;;6.50;;
79124;SDS011;68527;39.470;-0.376;2023-03-23T03:30:47;8.70;;;6.40;;
79124;SDS011;68527;39.470;-0.376;2023-03-23T03:33:16;7.70;;;6.70;;
79124;SDS011;68527;39.470;-0.376;2023-03-23T03:35:42;8.10;;;6.60;;
79124;SDS011;68527;39.470;-0.376;2023-03-23T03:38:09;8.70;;;6.50;;
79124;SDS011;68527;39.470;-0.376;2023-03-23T03:40:35;8.20;;;6.80;;
79124;SDS011;68527;39.470;-0.376;2023-03-23T03:43:02;9.00;;;6.40;;
79124;SDS011;68527;39.470;-0.376;2023-03-23T03:45:27;7.20;;;6.50;;
79124;SDS011;68527;39.470;-0.376;2023-03-23T03:47:53;10.70;;;7.40;;
79124;SDS011;68527;39.470;-0.376;2023-03-23T03:50:18;7.90;;;6.70;;
79124;SDS011;68527;39.470;-0.376;2023-03-23T03:52:44;7.40;;;6.10;;
79124;SDS011;68527;39.470;-0.376;2023-03-23T03:55:10;8.20;;;7.40;;
79124;SDS011;68527;39.470;-0.376;2023-03-23T03:57:37;9.20;;;7.20;;
79124;SDS011;68527;39.470;-0.376;2023-03-23T04:00:04;7.50;;;6.70;;
79124;SDS011;68527;39.470;-0.376;2023-03-23T04:02:43;8.50;;;6.50;;
79124;SDS011;68527;39.470;-0.376;2023-03-23T04:05:12;7.30;;;6.60;;
79124;SDS011;68527;39.470;-0.376;2023-03-23T04:07:38;9.00;;;6.70;;
79124;SDS011;68527;39.470;-0.376;2023-03-23T04:10:05;8.20;;;6.20;;
79124;SDS011;68527;39.470;-0.376;2023-03-23T04:12:32;7.40;;;6.50;;
79124;SDS011;68527;39.470;-0.376;2023-03-23T04:17:23;8.20;;;6.50;;
79124;SDS011;68527;39.470;-0.376;2023-03-23T04:19:51;10.30;;;7.10;;
79124;SDS011;68527;39.470;-0.376;2023-03-23T04:22:17;7.10;;;6.20;;
79124;SDS011;68527;39.470;-0.376;2023-03-23T04:24:43;8.10;;;6.80;;
79124;SDS011;68527;39.470;-0.376;2023-03-23T04:29:34;6.90;;;6.00;;
79124;SDS011;68527;39.470;-0.376;2023-03-23T04:32:00;8.50;;;7.00;;
79124;SDS011;68527;39.470;-0.376;2023-03-23T04:34:27;8.20;;;6.50;;
79124;SDS011;68527;39.470;-0.376;2023-03-23T04:36:52;8.10;;;6.60;;
79124;SDS011;68527;39.470;-0.376;2023-03-23T04:39:18;8.70;;;7.20;;
79124;SDS011;68527;39.470;-0.376;2023-03-23T04:41:44;9.00;;;6.90;;
79124;SDS011;68527;39.470;-0.376;2023-03-23T04:44:11;10.40;;;7.30;;
79124;SDS011;68527;39.470;-0.376;2023-03-23T04:46:42;8.60;;;7.40;;
79124;SDS011;68527;39.470;-0.376;2023-03-23T04:49:10;8.70;;;7.40;;
79124;SDS011;68527;39.470;-0.376;2023-03-23T04:51:36;10.20;;;8.50;;
79124;SDS011;68527;39.470;-0.376;2023-03-23T04:54:04;9.50;;;7.00;;
79124;SDS011;68527;39.470;-0.376;2023-03-23T04:56:29;9.80;;;7.00;;
79124;SDS011;68527;39.470;-0.376;2023-03-23T04:58:55;9.40;;;7.40;;
79124;SDS011;68527;39.470;-0.376;2023-03-23T05:01:20;8.40;;;7.00;;
79124;SDS011;68527;39.470;-0.376;2023-03-23T05:06:11;8.70;;;6.70;;
79124;SDS011;68527;39.470;-0.376;2023-03-23T05:08:37;9.70;;;7.50;;
79124;SDS011;68527;39.470;-0.376;2023-03-23T05:11:04;8.50;;;6.50;;
79124;SDS011;68527;39.470;-0.376;2023-03-23T05:13:30;10.40;;;7.40;;
79124;SDS011;68527;39.470;-0.376;2023-03-23T05:15:56;9.40;;;7.20;;
79124;SDS011;68527;39.470;-0.376;2023-03-23T05:20:47;7.50;;;6.50;;
79124;SDS011;68527;39.470;-0.376;2023-03-23T05:23:14;8.20;;;7.10;;
79124;SDS011;68527;39.470;-0.376;2023-03-23T05:25:40;9.30;;;6.90;;
79124;SDS011;68527;39.470;-0.376;2023-03-23T05:28:06;7.60;;;6.70;;
79124;SDS011;68527;39.470;-0.376;2023-03-23T05:30:33;11.90;;;7.00;;
79124;SDS011;68527;39.470;-0.376;2023-03-23T05:32:59;9.30;;;7.10;;
79124;SDS011;68527;39.470;-0.376;2023-03-23T05:35:25;8.60;;;7.40;;
79124;SDS011;68527;39.470;-0.376;2023-03-23T05:40:18;8.00;;;7.00;;
79124;SDS011;68527;39.470;-0.376;2023-03-23T05:42:45;8.90;;;7.00;;
79124;SDS011;68527;39.470;-0.376;2023-03-23T05:45:11;8.40;;;7.30;;
79124;SDS011;68527;39.470;-0.376;2023-03-23T05:47:40;11.00;;;7.90;;
79124;SDS011;68527;39.470;-0.376;2023-03-23T05:50:07;8.70;;;6.90;;
79124;SDS011;68527;39.470;-0.376;2023-03-23T05:52:34;7.40;;;6.60;;
79124;SDS011;68527;39.470;-0.376;2023-03-23T05:55:01;7.80;;;7.00;;
79124;SDS011;68527;39.470;-0.376;2023-03-23T05:57:28;13.50;;;7.70;;
79124;SDS011;68527;39.470;-0.376;2023-03-23T05:59:54;8.60;;;7.20;;
79124;SDS011;68527;39.470;-0.376;2023-03-23T06:02:21;8.10;;;7.10;;
79124;SDS011;68527;39.470;-0.376;2023-03-23T06:04:49;8.30;;;6.80;;
79124;SDS011;68527;39.470;-0.376;2023-03-23T06:07:15;8.70;;;6.90;;
79124;SDS011;68527;39.470;-0.376;2023-03-23T06:09:41;9.30;;;6.90;;
79124;SDS011;68527;39.470;-0.376;2023-03-23T06:12:07;8.40;;;6.60;;
79124;SDS011;68527;39.470;-0.376;2023-03-23T06:14:35;9.60;;;7.20;;
79124;SDS011;68527;39.470;-0.376;2023-03-23T06:17:01;10.60;;;7.60;;
79124;SDS011;68527;39.470;-0.376;2023-03-23T06:19:27;11.10;;;7.70;;
79124;SDS011;68527;39.470;-0.376;2023-03-23T06:21:56;13.20;;;8.00;;
79124;SDS011;68527;39.470;-0.376;2023-03-23T06:24:21;11.10;;;8.30;;
79124;SDS011;68527;39.470;-0.376;2023-03-23T06:26:47;11.40;;;7.80;;
79124;SDS011;68527;39.470;-0.376;2023-03-23T06:29:14;13.10;;;8.30;;
79124;SDS011;68527;39.470;-0.376;2023-03-23T06:31:40;16.30;;;10.00;;
79124;SDS011;68527;39.470;-0.376;2023-03-23T06:34:08;16.20;;;9.50;;
79124;SDS011;68527;39.470;-0.376;2023-03-23T06:36:35;16.40;;;9.80;;
79124;SDS011;68527;39.470;-0.376;2023-03-23T06:39:01;15.60;;;9.70;;
79124;SDS011;68527;39.470;-0.376;2023-03-23T06:41:29;16.20;;;9.90;;
79124;SDS011;68527;39.470;-0.376;2023-03-23T06:43:57;15.40;;;10.00;;
79124;SDS011;68527;39.470;-0.376;2023-03-23T06:46:23;16.90;;;10.00;;
79124;SDS011;68527;39.470;-0.376;2023-03-23T06:48:49;14.80;;;9.90;;
79124;SDS011;68527;39.470;-0.376;2023-03-23T06:51:15;17.30;;;10.20;;
79124;SDS011;68527;39.470;-0.376;2023-03-23T06:53:42;16.00;;;9.30;;
79124;SDS011;68527;39.470;-0.376;2023-03-23T06:56:08;13.10;;;9.50;;
79124;SDS011;68527;39.470;-0.376;2023-03-23T06:58:34;15.10;;;9.00;;
79124;SDS011;68527;39.470;-0.376;2023-03-23T07:01:00;16.20;;;9.00;;
79124;SDS011;68527;39.470;-0.376;2023-03-23T07:03:26;16.30;;;9.50;;
79124;SDS011;68527;39.470;-0.376;2023-03-23T07:05:53;15.00;;;8.60;;
79124;SDS011;68527;39.470;-0.376;2023-03-23T07:08:19;14.50;;;9.30;;
79124;SDS011;68527;39.470;-0.376;2023-03-23T07:10:46;17.20;;;10.10;;
79124;SDS011;68527;39.470;-0.376;2023-03-23T07:13:12;13.40;;;9.40;;
79124;SDS011;68527;39.470;-0.376;2023-03-23T07:15:38;22.00;;;9.80;;
79124;SDS011;68527;39.470;-0.376;2023-03-23T07:18:04;20.00;;;10.20;;
79124;SDS011;68527;39.470;-0.376;2023-03-23T07:20:30;13.70;;;8.80;;
79124;SDS011;68527;39.470;-0.376;2023-03-23T07:22:55;15.10;;;9.60;;
79124;SDS011;68527;39.470;-0.376;2023-03-23T07:25:22;15.10;;;9.30;;
79124;SDS011;68527;39.470;-0.376;2023-03-23T07:27:47;16.30;;;9.60;;
79124;SDS011;68527;39.470;-0.376;2023-03-23T07:30:13;18.50;;;9.00;;
79124;SDS011;68527;39.470;-0.376;2023-03-23T07:32:40;14.20;;;9.30;;
79124;SDS011;68527;39.470;-0.376;2023-03-23T07:35:07;16.40;;;9.10;;
79124;SDS011;68527;39.470;-0.376;2023-03-23T07:37:34;17.90;;;9.70;;
79124;SDS011;68527;39.470;-0.376;2023-03-23T07:40:01;17.60;;;9.80;;
79124;SDS011;68527;39.470;-0.376;2023-03-23T07:42:39;14.50;;;9.00;;
79124;SDS011;68527;39.470;-0.376;2023-03-23T07:45:06;14.30;;;8.90;;
79124;SDS011;68527;39.470;-0.376;2023-03-23T07:47:32;20.10;;;9.60;;
79124;SDS011;68527;39.470;-0.376;2023-03-23T07:49:58;14.80;;;9.40;;
79124;SDS011;68527;39.470;-0.376;2023-03-23T07:52:23;17.40;;;9.70;;
79124;SDS011;68527;39.470;-0.376;2023-03-23T07:54:49;15.30;;;9.80;;
79124;SDS011;68527;39.470;-0.376;2023-03-23T07:59:40;13.50;;;9.50;;
79124;SDS011;68527;39.470;-0.376;2023-03-23T08:04:33;14.60;;;9.60;;
79124;SDS011;68527;39.470;-0.376;2023-03-23T08:07:02;17.00;;;10.20;;
79124;SDS011;68527;39.470;-0.376;2023-03-23T08:09:29;19.00;;;10.60;;
79124;SDS011;68527;39.470;-0.376;2023-03-23T08:11:55;13.90;;;9.50;;
79124;SDS011;68527;39.470;-0.376;2023-03-23T08:14:21;17.00;;;10.30;;
79124;SDS011;68527;39.470;-0.376;2023-03-23T08:16:48;18.30;;;9.80;;
79124;SDS011;68527;39.470;-0.376;2023-03-23T08:19:13;18.90;;;10.50;;
79124;SDS011;68527;39.470;-0.376;2023-03-23T08:21:40;18.80;;;11.10;;
79124;SDS011;68527;39.470;-0.376;2023-03-23T08:24:05;18.20;;;10.60;;
79124;SDS011;68527;39.470;-0.376;2023-03-23T08:28:57;18.80;;;10.40;;
79124;SDS011;68527;39.470;-0.376;2023-03-23T08:31:22;17.70;;;10.20;;
79124;SDS011;68527;39.470;-0.376;2023-03-23T08:33:48;27.00;;;10.30;;
79124;SDS011;68527;39.470;-0.376;2023-03-23T08:36:14;21.40;;;9.60;;
79124;SDS011;68527;39.470;-0.376;2023-03-23T08:38:40;22.10;;;9.70;;
79124;SDS011;68527;39.470;-0.376;2023-03-23T08:41:05;20.80;;;9.20;;
79124;SDS011;68527;39.470;-0.376;2023-03-23T08:43:32;19.10;;;10.50;;
79124;SDS011;68527;39.470;-0.376;2023-03-23T08:45:59;16.60;;;8.50;;
79124;SDS011;68527;39.470;-0.376;2023-03-23T08:48:26;24.20;;;9.50;;
79124;SDS011;68527;39.470;-0.376;2023-03-23T08:50:52;15.10;;;8.20;;
79124;SDS011;68527;39.470;-0.376;2023-03-23T08:53:18;17.90;;;8.70;;
79124;SDS011;68527;39.470;-0.376;2023-03-23T08:55:46;14.60;;;8.60;;
79124;SDS011;68527;39.470;-0.376;2023-03-23T08:58:12;15.50;;;8.80;;
79124;SDS011;68527;39.470;-0.376;2023-03-23T09:00:38;15.90;;;8.20;;
79124;SDS011;68527;39.470;-0.376;2023-03-23T09:03:04;17.40;;;8.40;;
79124;SDS011;68527;39.470;-0.376;2023-03-23T09:05:29;15.10;;;8.00;;
79124;SDS011;68527;39.470;-0.376;2023-03-23T09:07:56;14.70;;;8.60;;
79124;SDS011;68527;39.470;-0.376;2023-03-23T09:10:26;17.60;;;9.70;;
79124;SDS011;68527;39.470;-0.376;2023-03-23T09:12:53;19.10;;;12.80;;
79124;SDS011;68527;39.470;-0.376;2023-03-23T09:15:20;24.30;;;13.60;;
79124;SDS011;68527;39.470;-0.376;2023-03-23T09:17:49;24.80;;;15.10;;
79124;SDS011;68527;39.470;-0.376;2023-03-23T09:20:16;22.70;;;15.90;;
79124;SDS011;68527;39.470;-0.376;2023-03-23T09:22:48;21.60;;;14.20;;
79124;SDS011;68527;39.470;-0.376;2023-03-23T09:25:15;21.80;;;13.70;;
79124;SDS011;68527;39.470;-0.376;2023-03-23T09:27:44;22.00;;;14.90;;
79124;SDS011;68527;39.470;-0.376;2023-03-23T09:30:12;23.70;;;16.60;;
79124;SDS011;68527;39.470;-0.376;2023-03-23T09:32:39;24.50;;;15.80;;
79124;SDS011;68527;39.470;-0.376;2023-03-23T09:35:06;28.70;;;15.60;;
79124;SDS011;68527;39.470;-0.376;2023-03-23T09:37:34;25.40;;;15.30;;
79124;SDS011;68527;39.470;-0.376;2023-03-23T09:40:03;22.20;;;14.70;;
79124;SDS011;68527;39.470;-0.376;2023-03-23T09:50:26;25.70;;;15.00;;
79124;SDS011;68527;39.470;-0.376;2023-03-23T09:53:01;24.90;;;15.00;;
79124;SDS011;68527;39.470;-0.376;2023-03-23T09:55:49;22.70;;;14.80;;
79124;SDS011;68527;39.470;-0.376;2023-03-23T10:01:15;21.10;;;14.80;;
79124;SDS011;68527;39.470;-0.376;2023-03-23T10:03:43;28.00;;;16.80;;
79124;SDS011;68527;39.470;-0.376;2023-03-23T10:06:11;24.70;;;15.80;;
79124;SDS011;68527;39.470;-0.376;2023-03-23T10:08:57;24.00;;;14.50;;
79124;SDS011;68527;39.470;-0.376;2023-03-23T10:16:48;17.30;;;12.10;;
79124;SDS011;68527;39.470;-0.376;2023-03-23T10:19:27;17.50;;;11.60;;
79124;SDS011;68527;39.470;-0.376;2023-03-23T10:22:03;19.50;;;12.80;;
79124;SDS011;68527;39.470;-0.376;2023-03-23T10:24:48;18.50;;;11.90;;
79124;SDS011;68527;39.470;-0.376;2023-03-23T10:30:31;17.50;;;12.10;;
79124;SDS011;68527;39.470;-0.376;2023-03-23T10:35:42;15.40;;;11.80;;
79124;SDS011;68527;39.470;-0.376;2023-03-23T10:43:39;15.00;;;11.30;;
79124;SDS011;68527;39.470;-0.376;2023-03-23T10:46:29;15.40;;;10.90;;
79124;SDS011;68527;39.470;-0.376;2023-03-23T10:49:16;15.30;;;11.00;;
79124;SDS011;68527;39.470;-0.376;2023-03-23T10:51:57;13.30;;;9.90;;
79124;SDS011;68527;39.470;-0.376;2023-03-23T10:54:32;13.50;;;10.20;;
79124;SDS011;68527;39.470;-0.376;2023-03-23T10:57:12;13.70;;;9.20;;
79124;SDS011;68527;39.470;-0.376;2023-03-23T10:59:57;12.20;;;10.10;;
79124;SDS011;68527;39.470;-0.376;2023-03-23T11:02:31;14.30;;;10.50;;
79124;SDS011;68527;39.470;-0.376;2023-03-23T11:05:16;13.70;;;9.30;;
79124;SDS011;68527;39.470;-0.376;2023-03-23T11:07:48;11.20;;;8.70;;
79124;SDS011;68527;39.470;-0.376;2023-03-23T11:10:20;12.00;;;8.50;;
79124;SDS011;68527;39.470;-0.376;2023-03-23T11:12:49;11.00;;;8.80;;
79124;SDS011;68527;39.470;-0.376;2023-03-23T11:15:32;10.70;;;8.50;;
79124;SDS011;68527;39.470;-0.376;2023-03-23T11:18:01;11.40;;;8.00;;
79124;SDS011;68527;39.470;-0.376;2023-03-23T11:20:29;9.60;;;7.20;;
79124;SDS011;68527;39.470;-0.376;2023-03-23T11:23:01;9.50;;;7.60;;
79124;SDS011;68527;39.470;-0.376;2023-03-23T11:25:33;11.80;;;7.60;;
79124;SDS011;68527;39.470;-0.376;2023-03-23T11:28:00;8.90;;;7.40;;
79124;SDS011;68527;39.470;-0.376;2023-03-23T11:30:27;11.30;;;7.20;;
79124;SDS011;68527;39.470;-0.376;2023-03-23T11:32:55;13.40;;;7.40;;
79124;SDS011;68527;39.470;-0.376;2023-03-23T11:35:26;13.90;;;7.20;;
79124;SDS011;68527;39.470;-0.376;2023-03-23T11:37:56;13.50;;;7.00;;
79124;SDS011;68527;39.470;-0.376;2023-03-23T11:40:24;11.10;;;7.20;;
79124;SDS011;68527;39.470;-0.376;2023-03-23T11:43:01;9.50;;;6.70;;
79124;SDS011;68527;39.470;-0.376;2023-03-23T11:45:35;11.50;;;6.70;;
79124;SDS011;68527;39.470;-0.376;2023-03-23T11:48:18;10.20;;;6.00;;
79124;SDS011;68527;39.470;-0.376;2023-03-23T11:50:52;12.40;;;6.30;;
79124;SDS011;68527;39.470;-0.376;2023-03-23T11:58:55;9.50;;;6.30;;
79124;SDS011;68527;39.470;-0.376;2023-03-23T12:06:52;9.80;;;6.30;;
79124;SDS011;68527;39.470;-0.376;2023-03-23T12:09:45;9.00;;;6.20;;
79124;SDS011;68527;39.470;-0.376;2023-03-23T12:12:17;8.30;;;5.80;;
79124;SDS011;68527;39.470;-0.376;2023-03-23T12:17:20;8.70;;;6.10;;
79124;SDS011;68527;39.470;-0.376;2023-03-23T12:19:55;9.50;;;6.40;;
79124;SDS011;68527;39.470;-0.376;2023-03-23T12:28:00;9.10;;;5.30;;
79124;SDS011;68527;39.470;-0.376;2023-03-23T12:36:33;9.10;;;5.90;;
79124;SDS011;68527;39.470;-0.376;2023-03-23T12:47:46;10.00;;;6.60;;
79124;SDS011;68527;39.470;-0.376;2023-03-23T12:50:31;9.70;;;6.00;;
79124;SDS011;68527;39.470;-0.376;2023-03-23T12:53:09;9.10;;;6.50;;
79124;SDS011;68527;39.470;-0.376;2023-03-23T12:58:19;8.30;;;6.20;;
79124;SDS011;68527;39.470;-0.376;2023-03-23T13:09:03;12.20;;;7.20;;
79124;SDS011;68527;39.470;-0.376;2023-03-23T13:11:35;9.10;;;6.30;;
79124;SDS011;68527;39.470;-0.376;2023-03-23T13:14:45;8.80;;;6.50;;
79124;SDS011;68527;39.470;-0.376;2023-03-23T13:22:21;7.50;;;6.70;;
79124;SDS011;68527;39.470;-0.376;2023-03-23T13:24:56;9.50;;;8.00;;
79124;SDS011;68527;39.470;-0.376;2023-03-23T13:27:25;10.80;;;7.50;;
79124;SDS011;68527;39.470;-0.376;2023-03-23T13:29:53;9.20;;;6.40;;
79124;SDS011;68527;39.470;-0.376;2023-03-23T13:32:20;8.00;;;6.80;;
79124;SDS011;68527;39.470;-0.376;2023-03-23T13:34:46;10.30;;;7.20;;
79124;SDS011;68527;39.470;-0.376;2023-03-23T13:42:30;8.80;;;7.00;;
79124;SDS011;68527;39.470;-0.376;2023-03-23T13:48:05;8.40;;;6.40;;
79124;SDS011;68527;39.470;-0.376;2023-03-23T13:50:56;8.60;;;6.30;;
79124;SDS011;68527;39.470;-0.376;2023-03-23T13:56:05;9.20;;;7.00;;
79124;SDS011;68527;39.470;-0.376;2023-03-23T13:58:49;8.10;;;6.70;;
79124;SDS011;68527;39.470;-0.376;2023-03-23T14:01:31;8.10;;;7.00;;
79124;SDS011;68527;39.470;-0.376;2023-03-23T14:04:03;9.10;;;6.50;;
79124;SDS011;68527;39.470;-0.376;2023-03-23T14:06:34;11.40;;;6.70;;
79124;SDS011;68527;39.470;-0.376;2023-03-23T14:09:20;7.30;;;6.40;;
79124;SDS011;68527;39.470;-0.376;2023-03-23T14:14:27;11.00;;;7.00;;
79124;SDS011;68527;39.470;-0.376;2023-03-23T14:17:06;9.00;;;6.50;;
79124;SDS011;68527;39.470;-0.376;2023-03-23T14:19:48;8.70;;;6.30;;
79124;SDS011;68527;39.470;-0.376;2023-03-23T14:22:22;8.30;;;7.00;;
79124;SDS011;68527;39.470;-0.376;2023-03-23T14:24:53;9.40;;;7.10;;
79124;SDS011;68527;39.470;-0.376;2023-03-23T14:27:25;7.80;;;6.60;;
79124;SDS011;68527;39.470;-0.376;2023-03-23T14:29:58;8.50;;;6.30;;
79124;SDS011;68527;39.470;-0.376;2023-03-23T14:32:25;8.80;;;6.40;;
79124;SDS011;68527;39.470;-0.376;2023-03-23T14:34:53;8.60;;;6.80;;
79124;SDS011;68527;39.470;-0.376;2023-03-23T14:37:19;8.20;;;6.90;;
79124;SDS011;68527;39.470;-0.376;2023-03-23T14:39:54;9.40;;;6.20;;
79124;SDS011;68527;39.470;-0.376;2023-03-23T14:42:31;7.90;;;7.10;;
79124;SDS011;68527;39.470;-0.376;2023-03-23T14:44:59;8.70;;;6.80;;
79124;SDS011;68527;39.470;-0.376;2023-03-23T14:47:27;9.80;;;7.10;;
79124;SDS011;68527;39.470;-0.376;2023-03-23T14:49:57;8.80;;;6.90;;
79124;SDS011;68527;39.470;-0.376;2023-03-23T14:52:26;10.10;;;6.50;;
79124;SDS011;68527;39.470;-0.376;2023-03-23T14:55:10;7.20;;;6.50;;
79124;SDS011;68527;39.470;-0.376;2023-03-23T14:57:39;9.00;;;6.90;;
79124;SDS011;68527;39.470;-0.376;2023-03-23T15:00:18;8.20;;;6.60;;
79124;SDS011;68527;39.470;-0.376;2023-03-23T15:02:56;9.00;;;7.00;;
79124;SDS011;68527;39.470;-0.376;2023-03-23T15:05:27;9.20;;;6.60;;
79124;SDS011;68527;39.470;-0.376;2023-03-23T15:07:59;7.70;;;6.50;;
79124;SDS011;68527;39.470;-0.376;2023-03-23T15:10:28;7.80;;;6.50;;
79124;SDS011;68527;39.470;-0.376;2023-03-23T15:12:54;9.10;;;6.90;;
79124;SDS011;68527;39.470;-0.376;2023-03-23T15:15:29;9.50;;;6.90;;
79124;SDS011;68527;39.470;-0.376;2023-03-23T15:17:56;7.50;;;6.70;;
79124;SDS011;68527;39.470;-0.376;2023-03-23T15:20:24;8.20;;;6.70;;
79124;SDS011;68527;39.470;-0.376;2023-03-23T15:22:52;8.40;;;7.00;;
79124;SDS011;68527;39.470;-0.376;2023-03-23T15:25:19;7.50;;;6.70;;
79124;SDS011;68527;39.470;-0.376;2023-03-23T15:27:55;7.60;;;6.80;;
79124;SDS011;68527;39.470;-0.376;2023-03-23T15:32:47;8.10;;;6.70;;
79124;SDS011;68527;39.470;-0.376;2023-03-23T15:35:17;11.50;;;7.00;;
79124;SDS011;68527;39.470;-0.376;2023-03-23T15:37:57;10.50;;;7.10;;
79124;SDS011;68527;39.470;-0.376;2023-03-23T15:40:26;7.30;;;5.80;;
79124;SDS011;68527;39.470;-0.376;2023-03-23T15:43:15;9.90;;;6.80;;
79124;SDS011;68527;39.470;-0.376;2023-03-23T15:45:51;7.80;;;6.60;;
79124;SDS011;68527;39.470;-0.376;2023-03-23T15:48:21;8.40;;;6.00;;
79124;SDS011;68527;39.470;-0.376;2023-03-23T15:50:48;7.80;;;6.70;;
79124;SDS011;68527;39.470;-0.376;2023-03-23T15:53:23;8.30;;;6.10;;
79124;SDS011;68527;39.470;-0.376;2023-03-23T15:55:55;8.70;;;6.40;;
79124;SDS011;68527;39.470;-0.376;2023-03-23T15:58:20;8.70;;;6.10;;
79124;SDS011;68527;39.470;-0.376;2023-03-23T16:00:46;7.60;;;6.50;;
79124;SDS011;68527;39.470;-0.376;2023-03-23T16:03:23;7.60;;;6.40;;
79124;SDS011;68527;39.470;-0.376;2023-03-23T16:05:52;9.20;;;6.30;;
79124;SDS011;68527;39.470;-0.376;2023-03-23T16:08:18;8.90;;;6.40;;
79124;SDS011;68527;39.470;-0.376;2023-03-23T16:10:44;8.60;;;6.60;;
79124;SDS011;68527;39.470;-0.376;2023-03-23T16:13:09;8.80;;;6.60;;
79124;SDS011;68527;39.470;-0.376;2023-03-23T16:15:35;12.10;;;7.00;;
79124;SDS011;68527;39.470;-0.376;2023-03-23T16:18:01;10.40;;;6.70;;
79124;SDS011;68527;39.470;-0.376;2023-03-23T16:20:27;10.10;;;6.40;;
79124;SDS011;68527;39.470;-0.376;2023-03-23T16:22:53;8.10;;;6.40;;
79124;SDS011;68527;39.470;-0.376;2023-03-23T16:25:19;8.40;;;6.60;;
79124;SDS011;68527;39.470;-0.376;2023-03-23T16:27:45;7.90;;;6.10;;
79124;SDS011;68527;39.470;-0.376;2023-03-23T16:30:19;9.90;;;6.50;;
79124;SDS011;68527;39.470;-0.376;2023-03-23T16:32:46;10.20;;;6.20;;
79124;SDS011;68527;39.470;-0.376;2023-03-23T16:35:13;11.40;;;6.00;;
79124;SDS011;68527;39.470;-0.376;2023-03-23T16:37:43;9.00;;;6.70;;
79124;SDS011;68527;39.470;-0.376;2023-03-23T16:40:10;7.70;;;5.90;;
79124;SDS011;68527;39.470;-0.376;2023-03-23T16:42:37;8.30;;;6.20;;
79124;SDS011;68527;39.470;-0.376;2023-03-23T16:45:02;12.30;;;6.80;;
79124;SDS011;68527;39.470;-0.376;2023-03-23T16:47:28;12.20;;;6.00;;
79124;SDS011;68527;39.470;-0.376;2023-03-23T16:49:53;10.90;;;6.80;;
79124;SDS011;68527;39.470;-0.376;2023-03-23T16:54:45;7.00;;;5.50;;
79124;SDS011;68527;39.470;-0.376;2023-03-23T16:57:10;7.70;;;5.80;;
79124;SDS011;68527;39.470;-0.376;2023-03-23T16:59:36;11.60;;;6.00;;